Time;durP1;ratioP1;P1;durP2;ratioP2;P2;SDS_P1;SDS_P2;PMS_P1;PMS_P2;Temp;Humidity;BMP_temperature;BMP_pressure;BME280_temperature;BME280_humidity;BME280_pressure;Samples;Min_cycle;Max_cycle;Signal;HPM_P1;HPM_P2
2022/03/25 11:31:04;;;;;;;40.25;18.10;;;;;;;19.49;nan;101883.41;4992957;28;303805;-65
2022/03/25 11:33:30;;;;;;;34.65;17.23;;;;;;;19.64;nan;101836.13;4989153;28;20049;-66
2022/03/25 11:36:28;;;;;;;40.95;16.83;;;;;;;19.28;nan;101889.13;5011109;28;20021;-67
2022/03/25 11:39:25;;;;;;;42.25;20.42;;;;;;;18.36;nan;101895.22;4982809;28;20128;-64
2022/03/25 11:42:01;;;;;;;33.40;18.02;;;;;;;18.76;nan;101879.47;4955803;28;20050;-70
2022/03/25 11:44:27;;;;;;;37.20;18.08;;;;;;;19.12;nan;101884.84;4966921;28;20465;-60
2022/03/25 11:47:02;;;;;;;35.72;18.58;;;;;;;19.04;nan;101891.81;4983237;28;20093;-59
2022/03/25 11:49:38;;;;;;;32.92;15.02;;;;;;;19.12;nan;101879.28;4997881;28;20141;-59
2022/03/25 11:52:16;;;;;;;29.67;15.70;;;;;;;19.52;nan;101882.81;5008104;28;20436;-59
2022/03/25 12:08:39;;;;;;;2.47;1.50;;;;;;;27.59;28.49;101876.41;5011734;27;20392;-68
2022/03/25 12:11:08;;;;;;;1.88;1.27;;;;;;;28.95;27.14;101882.00;5006078;28;20591;-69
2022/03/25 12:14:26;;;;;;;3.03;2.10;;;;;;;29.99;26.14;101879.22;5010561;28;20390;-81
2022/03/25 12:16:51;;;;;;;8.75;5.10;;;;;;;31.66;23.32;101879.59;4945808;28;20068;-77
2022/03/25 12:19:32;;;;;;;3.25;2.60;;;;;;;32.77;23.23;101868.41;4957234;28;20049;-78
2022/03/25 12:22:20;;;;;;;3.35;2.22;;;;;;;33.81;22.23;101863.06;4911003;28;20083;-78
2022/03/25 12:24:48;;;;;;;2.05;1.60;;;;;;;34.63;22.28;101862.00;4956674;28;20050;-65
2022/03/25 12:27:14;;;;;;;1.40;1.02;;;;;;;33.87;24.39;101864.31;5015450;28;20033;-65
2022/03/25 12:29:43;;;;;;;1.90;0.80;;;;;;;32.89;26.54;101856.81;5033954;28;20083;-66
2022/03/25 12:32:19;;;;;;;1.10;0.70;;;;;;;31.99;27.73;101838.56;5036799;28;20028;-67
2022/03/25 12:35:17;;;;;;;1.63;1.02;;;;;;;31.46;28.64;101842.06;5035568;28;20028;-66
2022/03/25 12:38:14;;;;;;;1.30;1.10;;;;;;;31.20;28.90;101858.94;5034375;28;20027;-65
2022/03/25 12:40:44;;;;;;;1.35;0.82;;;;;;;30.76;28.92;101826.97;5027539;28;20119;-66
2022/03/25 12:43:11;;;;;;;2.17;1.20;;;;;;;30.49;29.60;101826.00;5032507;28;20021;-67
2022/03/25 12:45:44;;;;;;;1.23;1.02;;;;;;;30.39;28.94;101846.31;5027178;28;20425;-66
2022/03/25 12:48:26;;;;;;;;;;;;;;;;;;;;;
2022/03/25 12:50:56;;;;;;;2.22;2.03;;;;;;;29.65;29.55;101819.53;5028232;28;20014;-66
2022/03/25 12:53:29;;;;;;;2.30;1.40;;;;;;;29.52;30.13;101832.09;5034777;28;20009;-66
2022/03/25 12:55:56;;;;;;;7.03;2.72;;;;;;;29.23;29.71;101797.50;5013560;28;20714;-66
2022/03/25 12:58:23;;;;;;;5.13;2.85;;;;;;;29.07;29.62;101820.81;5033636;28;20078;-66
2022/03/25 13:00:56;;;;;;;5.00;3.78;;;;;;;28.99;29.31;101827.41;5029261;28;20013;-66
2022/03/25 13:03:23;;;;;;;6.03;3.78;;;;;;;28.67;29.78;101832.13;5030637;28;20153;-64
2022/03/25 13:05:49;;;;;;;2.45;1.80;;;;;;;28.49;29.60;101823.94;5034054;28;20080;-68
2022/03/25 13:08:17;;;;;;;4.32;2.50;;;;;;;28.43;30.14;101811.31;5036523;28;20452;-66
2022/03/25 13:10:47;;;;;;;5.57;3.83;;;;;;;28.28;30.16;101810.03;5028301;28;20032;-65
2022/03/25 13:13:16;;;;;;;5.95;3.80;;;;;;;28.00;31.25;101810.75;5030860;28;20116;-65
2022/03/25 13:15:46;;;;;;;8.27;4.45;;;;;;;27.83;31.06;101799.72;5029599;28;20079;-65
2022/03/25 13:18:19;;;;;;;5.90;4.13;;;;;;;27.72;30.99;101821.06;5027853;28;20037;-65
2022/03/25 13:20:49;;;;;;;9.77;4.43;;;;;;;27.39;30.74;101802.28;5020099;28;20065;-66
2022/03/25 13:23:22;;;;;;;8.00;5.28;;;;;;;27.28;30.93;101818.72;5031088;28;20096;-65
2022/03/25 13:25:53;;;;;;;5.78;3.40;;;;;;;27.18;31.42;101797.50;5020088;28;20033;-65
2022/03/25 13:28:19;;;;;;;10.75;5.65;;;;;;;27.10;31.55;101812.44;5017583;28;20532;-66
2022/03/25 13:30:48;;;;;;;8.60;5.80;;;;;;;26.80;31.02;101804.16;5019695;28;20021;-65
2022/03/25 13:33:23;;;;;;;5.68;3.65;;;;;;;26.27;31.27;101782.13;5015087;28;20021;-66
2022/03/25 13:35:58;;;;;;;1.77;1.25;;;;;;;25.79;31.18;101781.38;5015756;28;20013;-65
2022/03/25 13:38:38;;;;;;;1.23;0.85;;;;;;;25.50;31.13;101798.16;5018042;28;20128;-66
2022/03/25 13:41:19;;;;;;;1.05;0.80;;;;;;;25.02;31.41;101770.09;5020694;28;20115;-66
2022/03/25 13:44:02;;;;;;;1.20;0.95;;;;;;;24.68;31.48;101762.59;5022077;28;20997;-66
2022/03/25 13:46:44;;;;;;;1.58;1.10;;;;;;;24.52;31.99;101793.81;5013416;28;20033;-70
2022/03/25 13:49:14;;;;;;;0.90;0.68;;;;;;;24.31;31.97;101781.63;5016029;28;20021;-64
2022/03/25 13:51:41;;;;;;;1.00;0.50;;;;;;;24.22;32.52;101790.84;5039957;28;20805;-69
2022/03/25 13:54:12;;;;;;;0.95;0.50;;;;;;;24.12;32.90;101788.31;5028012;28;20025;-69
2022/03/25 13:56:46;;;;;;;0.40;0.40;;;;;;;24.02;32.78;101791.41;5033652;28;20030;-68
2022/03/25 13:59:23;;;;;;;0.50;0.40;;;;;;;23.97;32.45;101781.22;5032883;28;20031;-68
2022/03/25 14:01:51;;;;;;;0.40;0.25;;;;;;;23.96;33.11;101770.38;5032443;28;20021;-68
2022/03/25 14:04:22;;;;;;;0.30;0.20;;;;;;;23.95;32.68;101763.16;5014449;28;20033;-70
2022/03/25 14:06:56;;;;;;;0.30;0.17;;;;;;;23.98;32.48;101768.91;5029875;28;20356;-69
2022/03/25 14:09:32;;;;;;;;;;;;;;;23.96;33.11;101764.78;5024448;28;20100;-68
2022/03/25 14:12:14;;;;;;;1.05;0.20;;;;;;;23.92;32.29;101764.63;5021048;28;19913;-70
2022/03/25 14:14:44;;;;;;;0.30;0.30;;;;;;;23.86;33.00;101766.75;5032645;28;20025;-67
2022/03/25 14:17:14;;;;;;;0.25;0.25;;;;;;;23.87;33.24;101757.22;5028865;28;20029;-68
2022/03/25 14:19:40;;;;;;;0.35;0.30;;;;;;;23.89;33.22;101756.91;5032825;28;20029;-63
2022/03/25 14:22:08;;;;;;;0.30;0.30;;;;;;;23.88;33.48;101747.69;5032755;28;20029;-64
2022/03/25 14:24:34;;;;;;;0.20;0.20;;;;;;;23.98;33.06;101748.53;5014763;28;20036;-64
2022/03/25 14:27:02;;;;;;;0.35;0.20;;;;;;;24.02;33.75;101743.94;5025332;28;20125;-67
2022/03/25 14:29:28;;;;;;;0.25;0.25;;;;;;;24.02;33.40;101735.53;5030765;28;20389;-64
2022/03/25 14:31:54;;;;;;;0.20;0.20;;;;;;;24.13;34.09;101750.84;5026516;28;20136;-62
2022/03/25 14:34:19;;;;;;;0.13;0.13;;;;;;;24.14;33.91;101749.72;5018405;28;20725;-62
2022/03/25 14:36:50;;;;;;;0.35;0.35;;;;;;;24.18;33.75;101739.53;5021299;28;20086;-65
2022/03/25 14:39:16;;;;;;;0.55;0.20;;;;;;;24.20;33.39;101731.63;5029230;28;20386;-63
2022/03/25 14:41:43;;;;;;;0.20;0.20;;;;;;;24.29;33.41;101751.19;5012625;28;20101;-63
2022/03/25 14:44:09;;;;;;;0.20;0.20;;;;;;;24.32;33.65;101744.13;5028689;28;20041;-65
2022/03/25 14:46:37;;;;;;;0.30;0.30;;;;;;;24.32;33.89;101744.94;5029719;28;20087;-64
2022/03/25 14:49:04;;;;;;;0.15;0.15;;;;;;;24.31;34.03;101737.75;5029350;28;20075;-65
2022/03/25 14:51:36;;;;;;;1.23;0.30;;;;;;;24.25;34.13;101736.22;5029076;28;20029;-64
2022/03/25 14:54:03;;;;;;;0.20;0.20;;;;;;;24.23;33.96;101741.34;5026966;28;20029;-65
2022/03/25 14:56:29;;;;;;;0.30;0.30;;;;;;;24.17;34.35;101740.69;5026253;28;20036;-66
2022/03/25 14:58:55;;;;;;;0.22;0.22;;;;;;;24.13;33.99;101747.25;5029674;28;20025;-65
2022/03/25 15:01:21;;;;;;;0.20;0.20;;;;;;;24.08;34.99;101739.84;5027097;28;20085;-65
2022/03/25 15:03:54;;;;;;;0.32;0.20;;;;;;;24.04;34.30;101733.25;5024472;28;20580;-65
2022/03/25 15:06:19;;;;;;;0.10;0.10;;;;;;;23.99;34.69;101737.03;5025333;28;20348;-64
2022/03/25 15:08:45;;;;;;;0.30;0.30;;;;;;;23.95;34.94;101736.03;5029416;28;20053;-64
2022/03/25 15:11:12;;;;;;;0.30;0.30;;;;;;;23.91;34.79;101725.84;5009660;28;20029;-64
2022/03/25 15:13:38;;;;;;;0.35;0.20;;;;;;;23.91;35.32;101718.28;5026251;28;20083;-62
2022/03/25 15:16:09;;;;;;;0.32;0.20;;;;;;;23.98;35.17;101723.41;5028764;28;20044;-65
2022/03/25 15:18:36;;;;;;;0.40;0.20;;;;;;;24.02;34.94;101721.56;5027371;28;20033;-67
2022/03/25 15:21:02;;;;;;;0.17;0.17;;;;;;;24.07;34.49;101717.81;5027113;28;20109;-64
2022/03/25 15:23:27;;;;;;;0.30;0.30;;;;;;;24.09;35.46;101719.13;5029535;28;20109;-66
2022/03/25 15:25:53;;;;;;;0.32;0.32;;;;;;;24.08;34.86;101711.91;5026674;28;20068;-66
2022/03/25 15:28:18;;;;;;;0.30;0.30;;;;;;;24.15;35.12;101729.00;5008718;28;20037;-66
2022/03/25 15:36:12;;;;;;;0.20;0.20;;;;;;;24.05;34.96;101723.75;5027891;28;20043;-68
2022/03/25 15:38:37;;;;;;;0.57;0.50;;;;;;;24.00;35.18;101713.53;5025635;28;20679;-70
2022/03/25 15:41:12;;;;;;;1.15;0.85;;;;;;;24.13;34.96;101720.13;5031816;28;20647;-70
2022/03/25 15:43:40;;;;;;;1.42;1.20;;;;;;;24.49;34.34;101713.38;5013275;28;20063;-67
2022/03/25 15:46:07;;;;;;;2.45;1.02;;;;;;;24.93;34.84;101716.16;5030832;28;20109;-67
2022/03/25 15:48:33;;;;;;;1.20;1.10;;;;;;;25.31;33.62;101717.38;5029021;28;20324;-67
2022/03/25 15:50:58;;;;;;;0.90;0.90;;;;;;;25.50;33.10;101714.97;5028172;28;20067;-67
2022/03/25 15:53:25;;;;;;;1.13;1.02;;;;;;;25.49;32.55;101713.31;5025482;28;20029;-65
2022/03/25 15:55:55;;;;;;;1.77;1.17;;;;;;;25.37;32.27;101710.44;5019820;28;20056;-66
2022/03/25 15:58:21;;;;;;;1.05;0.95;;;;;;;25.18;32.92;101713.59;5026865;28;20029;-66
2022/03/25 16:00:46;;;;;;;0.60;0.60;;;;;;;24.99;32.20;101716.78;5022794;28;20121;-66
2022/03/25 16:03:13;;;;;;;2.08;0.82;;;;;;;24.81;32.36;101705.66;5025463;28;20442;-66
2022/03/25 16:05:41;;;;;;;0.68;0.47;;;;;;;24.80;32.55;101715.19;5028647;28;20113;-67
2022/03/25 16:08:07;;;;;;;0.90;0.65;;;;;;;24.76;32.78;101708.59;5025471;28;20046;-66
2022/03/25 16:10:33;;;;;;;1.50;0.50;;;;;;;24.75;33.04;101707.00;5023129;28;20042;-66
2022/03/25 16:13:01;;;;;;;0.52;0.50;;;;;;;24.81;32.83;101716.84;5021698;28;20043;-66
2022/03/25 16:15:28;;;;;;;0.47;0.30;;;;;;;24.91;33.26;101710.88;5025340;28;20068;-67
2022/03/25 16:17:54;;;;;;;0.47;0.40;;;;;;;25.09;33.55;101717.25;5025447;28;20364;-67
2022/03/25 16:20:21;;;;;;;0.77;0.68;;;;;;;25.21;32.93;101719.34;5024666;28;20108;-67
2022/03/25 16:22:46;;;;;;;1.00;0.77;;;;;;;25.16;32.78;101716.75;5024047;28;20088;-67
2022/03/25 16:25:13;;;;;;;1.10;0.98;;;;;;;25.15;32.13;101714.28;5023093;28;20507;-66
2022/03/25 16:27:41;;;;;;;1.08;0.70;;;;;;;25.22;32.21;101715.41;5018060;28;20033;-67
2022/03/25 16:30:08;;;;;;;1.73;0.95;;;;;;;25.30;31.97;101712.91;5022289;28;20041;-69
2022/03/25 16:32:34;;;;;;;0.57;0.57;;;;;;;25.36;32.10;101703.19;5013159;28;20044;-68
2022/03/25 16:34:59;;;;;;;0.85;0.70;;;;;;;25.45;31.58;101712.34;5024091;28;21125;-67
2022/03/25 16:37:24;;;;;;;1.70;0.70;;;;;;;25.44;31.87;101710.72;5025999;28;20088;-68
2022/03/25 16:39:50;;;;;;;0.90;0.70;;;;;;;25.33;31.49;101707.47;5020635;28;20030;-67
2022/03/25 16:42:17;;;;;;;1.70;0.90;;;;;;;25.17;31.50;101709.97;5023894;28;20043;-67
2022/03/25 16:44:42;;;;;;;0.95;0.70;;;;;;;25.00;31.48;101708.06;5021531;28;20040;-66
2022/03/25 16:47:08;;;;;;;0.85;0.77;;;;;;;24.88;30.70;101705.13;5023269;28;20052;-66
2022/03/25 16:49:36;;;;;;;1.25;1.00;;;;;;;24.72;30.78;101700.06;5009340;28;20095;-68
2022/03/25 16:52:03;;;;;;;1.02;0.80;;;;;;;24.56;31.27;101708.13;5026187;28;20468;-68
2022/03/25 16:54:29;;;;;;;0.95;0.60;;;;;;;24.42;31.08;101710.28;5022978;28;20038;-67
2022/03/25 16:56:56;;;;;;;0.98;0.70;;;;;;;24.29;30.59;101712.06;5028534;28;20067;-67
2022/03/25 16:59:21;;;;;;;0.65;0.65;;;;;;;24.18;30.57;101710.75;5028071;28;20029;-67
2022/03/25 17:01:48;;;;;;;0.68;0.68;;;;;;;24.02;31.31;101697.28;5027292;28;20500;-67
2022/03/25 17:04:19;;;;;;;3.95;1.70;;;;;;;23.88;29.85;101696.59;5028638;28;20034;-73
2022/03/25 17:06:47;;;;;;;4.22;2.15;;;;;;;23.51;30.61;101696.81;5001310;28;20042;-72
2022/03/25 17:11:05;;;;;;;9.05;5.30;;;;;;;23.90;27.65;101715.81;5076543;27;21385;-74
2022/03/25 17:13:41;;;;;;;11.27;5.90;;;;;;;23.72;27.17;101699.00;5079004;28;20035;-72
2022/03/25 17:16:10;;;;;;;9.07;4.82;;;;;;;23.38;27.50;101706.13;5063616;28;20035;-72
2022/03/25 17:18:39;;;;;;;10.27;5.28;;;;;;;23.17;28.10;101703.91;5089204;28;20047;-72
2022/03/25 17:21:07;;;;;;;7.07;5.03;;;;;;;22.84;27.96;101684.66;5081620;28;20406;-73
2022/03/25 17:23:45;;;;;;;;;;;;;;;;;;;;;
2022/03/25 17:26:18;;;;;;;11.05;6.18;;;;;;;22.45;28.38;101718.81;5092644;28;20032;-73
2022/03/25 17:28:45;;;;;;;7.87;4.00;;;;;;;22.03;28.65;101699.41;5089494;28;20059;-74
2022/03/25 17:31:10;;;;;;;6.43;3.47;;;;;;;21.89;29.35;101713.38;5082322;28;20063;-76
2022/03/25 17:33:36;;;;;;;5.32;3.25;;;;;;;21.75;29.63;101716.16;5092254;28;20538;-76
2022/03/25 17:36:06;;;;;;;4.65;3.40;;;;;;;21.56;29.69;101721.03;5082380;28;20020;-75
2022/03/25 17:38:50;;;;;;;;;;;;;;;;;;;;;
2022/03/25 17:41:20;;;;;;;2.90;2.22;;;;;;;21.03;30.22;101708.38;5091387;28;22197;-75
2022/03/25 17:46:57;;;;;;;5.47;3.38;;;;;;;20.36;30.92;101701.94;5032934;28;20034;-75
2022/03/25 17:49:25;;;;;;;2.92;2.00;;;;;;;20.18;31.44;101716.66;5060747;28;20041;-77
2022/03/25 17:52:15;;;;;;;4.85;2.92;;;;;;;19.66;31.93;101689.56;5067226;28;20044;-75
2022/03/25 17:54:58;;;;;;;4.70;2.50;;;;;;;19.29;32.24;101699.44;5086316;28;20040;-75
2022/03/25 17:57:34;;;;;;;;;;;;;;;;;;;;;
2022/03/25 18:00:59;;;;;;;;;;;;;;;;;;;;;
2022/03/25 18:03:50;;;;;;;9.40;5.45;;;;;;;17.94;33.46;101720.97;5086072;28;20096;-76
2022/03/25 18:06:46;;;;;;;7.82;3.92;;;;;;;17.32;33.92;101689.94;5077116;28;20418;-76
2022/03/25 18:28:38;;;;;;;;;;;;;;;;;;;;;
2022/03/25 18:43:32;;;;;;;2.35;1.67;;;;;;;12.92;41.65;101752.41;4892796;29;20039;-72
2022/03/25 18:50:45;;;;;;;1.65;1.13;;;;;;;12.40;42.25;101741.63;4904997;29;20051;-73
2022/03/25 18:53:57;;;;;;;;;;;;;;;;;;;;;
2022/03/25 19:07:11;;;;;;;2.45;1.65;;;;;;;11.74;43.42;101765.75;5007410;28;20028;-73
2022/03/25 19:10:05;;;;;;;;;;;;;;;;;;;;;
2022/03/25 19:15:30;;;;;;;;;;;;;;;11.44;44.44;101764.03;5035906;28;20060;-74
2022/03/25 19:18:54;;;;;;;1.13;0.82;;;;;;;11.13;44.16;101736.75;5063786;28;19987;-73
2022/03/25 19:21:19;;;;;;;1.45;0.93;;;;;;;11.16;44.40;101740.94;5074862;28;20479;-73
2022/03/25 19:26:53;;;;;;;5.50;2.20;;;;;;;10.91;45.02;101736.50;5070594;28;20044;-75
2022/03/25 19:29:49;;;;;;;;;;;;;;;;;;;;;
2022/03/25 19:32:27;;;;;;;2.45;1.50;;;;;;;10.95;45.24;101773.28;5065347;28;20039;-74
2022/03/25 19:34:55;;;;;;;3.30;1.40;;;;;;;10.92;44.94;101781.97;5063859;28;20039;-73
2022/03/25 19:37:21;;;;;;;2.88;1.60;;;;;;;10.84;45.76;101787.78;5054328;28;20035;-73
2022/03/25 19:39:47;;;;;;;2.42;1.23;;;;;;;10.75;45.50;101783.72;5048008;28;20067;-72
2022/03/25 19:42:25;;;;;;;;;;;;;;;;;;;;;
2022/03/25 19:44:51;;;;;;;1.95;1.52;;;;;;;10.59;45.95;101796.97;5070753;28;20066;-73
2022/03/25 19:47:19;;;;;;;2.13;0.90;;;;;;;10.31;46.38;101762.84;5057190;28;20123;-72
2022/03/25 19:50:10;;;;;;;1.42;1.00;;;;;;;10.42;45.71;101790.50;5072604;28;20044;-74
2022/03/25 19:52:44;;;;;;;1.75;1.00;;;;;;;10.27;45.90;101778.03;5047641;28;20381;-71
2022/03/25 19:55:19;;;;;;;0.93;0.80;;;;;;;10.15;46.49;101777.16;5060326;28;20028;-75
2022/03/25 20:08:42;;;;;;;1.17;1.02;;;;;;;9.72;47.00;101764.44;5007419;28;20072;-75
2022/03/25 20:12:19;;;;;;;1.17;0.77;;;;;;;9.89;47.17;101814.66;5038423;28;20048;-76
2022/03/25 20:15:36;;;;;;;1.80;0.90;;;;;;;9.74;47.23;101811.50;4977276;28;20050;-72
2022/03/25 20:21:55;;;;;;;;;;;;;;;;;;;;;
2022/03/25 20:25:18;;;;;;;;;;;;;;;;;;;;;
2022/03/25 20:29:25;;;;;;;;;;;;;;;;;;;;;
2022/03/25 20:36:18;;;;;;;;;;;;;;;;;;;;;
2022/03/25 20:39:53;;;;;;;2.83;0.80;;;;;;;9.28;48.74;101829.16;4854390;29;20088;-77
2022/03/25 20:43:28;;;;;;;;;;;;;;;;;;;;;
2022/03/25 23:12:02;;;;;;;4.93;1.75;;;;;;;7.34;57.08;101885.22;5936796;23;20787;-75
2022/03/25 23:15:36;;;;;;;;;;;;;;;;;;;;;
2022/03/25 23:28:40;;;;;;;4.85;2.42;;;;;;;7.14;59.00;101896.94;5751266;24;20034;-77
2022/03/25 23:31:09;;;;;;;3.70;2.08;;;;;;;7.15;58.84;101898.63;5745783;24;20023;-77
2022/03/25 23:33:35;;;;;;;3.85;2.55;;;;;;;7.07;58.43;101885.19;5889208;24;20036;-71
2022/03/25 23:36:07;;;;;;;6.70;2.75;;;;;;;7.25;59.25;101886.47;6051682;23;20021;-70
2022/03/25 23:38:34;;;;;;;13.85;4.20;;;;;;;7.37;59.80;101879.34;6121913;23;20082;-70
2022/03/25 23:41:00;;;;;;;9.15;4.03;;;;;;;7.59;59.43;101892.75;6148564;23;20332;-72
2022/03/25 23:43:26;;;;;;;8.98;4.28;;;;;;;7.76;59.25;101904.06;6122928;23;20024;-71
2022/03/25 23:45:52;;;;;;;14.80;4.60;;;;;;;7.82;58.98;101909.47;6148145;23;20313;-70
2022/03/25 23:48:20;;;;;;;7.30;3.50;;;;;;;7.80;57.97;101906.16;6068611;23;20014;-71
2022/03/25 23:50:46;;;;;;;10.55;4.90;;;;;;;7.74;58.91;101901.56;6148623;23;20088;-71
2022/03/25 23:53:12;;;;;;;9.65;4.97;;;;;;;7.67;58.68;101896.09;6151115;22;20001;-70
2022/03/25 23:55:39;;;;;;;9.40;4.72;;;;;;;7.64;59.27;101895.69;6150223;22;20028;-71
2022/03/25 23:58:04;;;;;;;15.05;4.25;;;;;;;7.66;58.83;101899.03;6127050;23;20013;-70
